Time;durP1;ratioP1;P1;durP2;ratioP2;P2;SDS_P1;SDS_P2;PMS_P1;PMS_P2;Temp;Humidity;BMP_temperature;BMP_pressure;BME280_temperature;BME280_humidity;BME280_pressure;Samples;Min_cycle;Max_cycle;Signal;HPM_P1;HPM_P2
2021/04/09 00:01:40;;;;;;;1.27;1.17;;;8.40;99.90;;;;;;5035345;28;20195;-79
2021/04/09 00:04:05;;;;;;;0.68;0.68;;;8.40;99.90;;;;;;5034289;28;20234;-79
2021/04/09 00:06:31;;;;;;;1.00;0.95;;;8.20;99.90;;;;;;5035249;28;20698;-78
2021/04/09 00:08:56;;;;;;;1.33;1.23;;;8.20;99.90;;;;;;5035263;28;20491;-79
2021/04/09 00:11:22;;;;;;;2.78;1.10;;;8.00;99.90;;;;;;5033883;28;20246;-79
2021/04/09 00:13:47;;;;;;;4.43;1.48;;;8.00;99.90;;;;;;5035019;28;20183;-80
2021/04/09 00:16:13;;;;;;;40.65;1.90;;;8.10;99.90;;;;;;5034968;28;20219;-75
2021/04/09 00:18:39;;;;;;;0.60;0.60;;;8.10;99.90;;;;;;5035121;28;20172;-78
2021/04/09 00:21:05;;;;;;;1.60;1.50;;;8.30;99.90;;;;;;5035062;28;20641;-79
2021/04/09 00:23:30;;;;;;;1.20;1.20;;;8.40;99.90;;;;;;5033683;28;20200;-76
2021/04/09 00:25:56;;;;;;;2.92;2.63;;;8.50;99.90;;;;;;5034934;28;20191;-78
2021/04/09 00:28:22;;;;;;;2.13;2.00;;;8.60;99.90;;;;;;5034889;28;20253;-79
2021/04/09 00:30:47;;;;;;;3.38;1.45;;;8.50;99.90;;;;;;5033592;28;20207;-77
2021/04/09 00:33:13;;;;;;;1.00;1.00;;;8.50;99.90;;;;;;5034703;28;20152;-76
2021/04/09 00:35:39;;;;;;;1.58;1.42;;;8.50;99.90;;;;;;5033708;28;20195;-77
2021/04/09 00:38:04;;;;;;;1.90;1.50;;;8.60;99.90;;;;;;5034682;28;20161;-78
2021/04/09 00:40:30;;;;;;;3.55;3.15;;;8.60;99.90;;;;;;5034657;28;20183;-76
2021/04/09 00:42:57;;;;;;;0.52;0.52;;;8.70;99.90;;;;;;5034614;28;20182;-77
2021/04/09 00:45:22;;;;;;;0.93;0.93;;;8.60;99.90;;;;;;5033101;28;20190;-77
2021/04/09 00:47:48;;;;;;;0.98;0.93;;;8.60;99.90;;;;;;5034537;28;20250;-77
2021/04/09 00:50:15;;;;;;;1.15;1.10;;;8.50;99.90;;;;;;5034473;28;20203;-76
2021/04/09 00:52:42;;;;;;;1.42;1.33;;;8.40;99.90;;;;;;5034759;28;20179;-79
2021/04/09 00:55:10;;;;;;;0.75;0.73;;;8.50;99.90;;;;;;5034520;28;20163;-79
2021/04/09 00:57:37;;;;;;;1.45;1.35;;;8.50;99.90;;;;;;5034291;28;20176;-78
2021/04/09 01:00:08;;;;;;;2.53;2.10;;;8.40;99.90;;;;;;5033008;28;20259;-76
2021/04/09 01:02:34;;;;;;;2.88;2.03;;;8.30;99.90;;;;;;5032987;28;20164;-77
2021/04/09 01:05:00;;;;;;;1.55;1.40;;;8.20;99.90;;;;;;5034204;28;20527;-77
2021/04/09 01:07:26;;;;;;;1.23;1.17;;;8.40;99.90;;;;;;5034131;28;20192;-78
2021/04/09 01:09:53;;;;;;;0.60;0.60;;;8.50;99.90;;;;;;5033958;28;20195;-77
2021/04/09 01:12:19;;;;;;;0.40;0.40;;;8.40;99.90;;;;;;5032904;28;20651;-79
2021/04/09 01:14:46;;;;;;;5.68;0.88;;;8.50;99.90;;;;;;5033771;28;20180;-79
2021/04/09 01:20:45;;;;;;;1.48;1.38;;;8.50;99.90;;;;;;5032490;28;20176;-77
2021/04/09 01:23:30;;;;;;;13.68;3.03;;;8.30;99.90;;;;;;5033822;28;20171;-76
2021/04/09 01:26:48;;;;;;;3.75;2.35;;;8.20;99.90;;;;;;5033844;28;20184;-76
2021/04/09 01:29:32;;;;;;;2.08;1.45;;;8.20;99.90;;;;;;5033801;28;20174;-76
2021/04/09 01:32:01;;;;;;;10.60;1.95;;;8.30;99.90;;;;;;5033812;28;20183;-76
2021/04/09 01:34:33;;;;;;;0.93;0.93;;;8.20;99.90;;;;;;5033584;28;20694;-76
2021/04/09 01:37:07;;;;;;;1.42;1.33;;;8.00;99.90;;;;;;5033010;28;20196;-78
2021/04/09 01:39:36;;;;;;;5.22;1.65;;;7.90;99.90;;;;;;5032284;28;20164;-75
2021/04/09 01:42:06;;;;;;;0.50;0.50;;;7.80;99.90;;;;;;5033668;28;20155;-75
2021/04/09 01:44:33;;;;;;;0.90;0.90;;;7.90;99.90;;;;;;5033374;28;20164;-75
2021/04/09 01:47:00;;;;;;;14.73;1.58;;;7.90;99.90;;;;;;5032001;28;20227;-75
2021/04/09 01:49:27;;;;;;;0.60;0.60;;;7.80;99.90;;;;;;5033351;28;20156;-75
2021/04/09 01:51:55;;;;;;;2.33;2.13;;;7.70;99.90;;;;;;5033691;28;20494;-75
2021/04/09 01:54:23;;;;;;;4.88;1.63;;;7.70;99.90;;;;;;5032124;28;20646;-76
2021/04/09 01:56:51;;;;;;;1.10;1.10;;;7.90;99.90;;;;;;5031546;28;20680;-75
2021/04/09 01:59:18;;;;;;;0.90;0.90;;;7.60;99.90;;;;;;5032098;28;20559;-75
2021/04/09 02:01:48;;;;;;;5.65;1.60;;;7.60;99.90;;;;;;5031847;28;20171;-75
2021/04/09 02:04:17;;;;;;;0.77;0.77;;;7.70;99.90;;;;;;5033158;28;20624;-76
2021/04/09 02:06:44;;;;;;;1.80;1.70;;;7.60;99.90;;;;;;5033009;28;20180;-75
2021/04/09 02:09:11;;;;;;;2.95;1.85;;;7.50;99.90;;;;;;5033203;28;20164;-75
2021/04/09 02:11:37;;;;;;;3.53;2.08;;;7.40;99.90;;;;;;5033126;28;20203;-75
2021/04/09 02:14:05;;;;;;;0.80;0.80;;;7.50;99.90;;;;;;5033018;28;20520;-75
2021/04/09 02:16:31;;;;;;;7.28;1.45;;;7.30;99.90;;;;;;5031774;28;20199;-75
2021/04/09 02:18:59;;;;;;;1.30;1.27;;;7.20;99.90;;;;;;5033094;28;20526;-75
2021/04/09 02:21:25;;;;;;;0.98;0.82;;;7.10;99.90;;;;;;5033045;28;20168;-75
2021/04/09 02:23:51;;;;;;;1.90;1.80;;;7.20;99.90;;;;;;5032921;28;20221;-75
2021/04/09 02:26:18;;;;;;;0.43;0.43;;;7.10;99.90;;;;;;5032778;28;20180;-75
2021/04/09 02:28:45;;;;;;;30.27;1.48;;;7.10;99.90;;;;;;5033009;28;20222;-75
2021/04/09 02:31:11;;;;;;;0.73;0.73;;;7.10;99.90;;;;;;5032548;28;20667;-75
2021/04/09 02:33:38;;;;;;;1.75;1.65;;;7.00;99.90;;;;;;5032915;28;20524;-76
2021/04/09 02:36:15;;;;;;;0.73;0.73;;;7.00;99.90;;;;;;5031521;28;20202;-75
2021/04/09 02:38:45;;;;;;;1.50;0.70;;;7.00;99.90;;;;;;5032883;28;20226;-75
2021/04/09 02:41:14;;;;;;;3.05;2.85;;;7.00;99.90;;;;;;5031548;28;20167;-76
2021/04/09 02:43:40;;;;;;;0.90;0.90;;;6.90;99.90;;;;;;5031332;28;20279;-75
2021/04/09 02:46:09;;;;;;;2.72;1.50;;;6.90;99.90;;;;;;5032634;28;20214;-75
2021/04/09 02:48:38;;;;;;;0.70;0.70;;;6.90;99.90;;;;;;5031357;28;20172;-75
2021/04/09 02:51:07;;;;;;;2.83;2.22;;;7.00;99.90;;;;;;5032694;28;20740;-75
2021/04/09 02:53:37;;;;;;;1.27;1.27;;;7.10;99.90;;;;;;5031451;28;20616;-75
2021/04/09 02:56:04;;;;;;;0.70;0.70;;;7.10;99.90;;;;;;5031415;28;20196;-76
2021/04/09 02:58:33;;;;;;;2.30;2.15;;;7.00;99.90;;;;;;5032654;28;20210;-75
2021/04/09 03:01:00;;;;;;;3.13;1.35;;;7.10;99.90;;;;;;5031399;28;20258;-75
2021/04/09 03:03:26;;;;;;;0.75;0.57;;;7.30;99.90;;;;;;5032617;28;20242;-75
2021/04/09 03:05:53;;;;;;;3.25;1.35;;;7.30;99.90;;;;;;5032561;28;20195;-76
2021/04/09 03:08:20;;;;;;;4.05;1.25;;;7.40;99.90;;;;;;5032668;28;20597;-75
2021/04/09 03:10:46;;;;;;;1.60;1.30;;;7.30;99.90;;;;;;5034978;28;20204;-75
2021/04/09 03:13:12;;;;;;;5.35;1.02;;;7.30;99.90;;;;;;5036269;28;20502;-75
2021/04/09 03:15:55;;;;;;;4.63;1.40;;;7.30;99.90;;;;;;5036564;28;20195;-75
2021/04/09 03:18:22;;;;;;;2.10;1.30;;;7.20;99.90;;;;;;5036208;28;20159;-76
2021/04/09 03:20:48;;;;;;;1.98;1.00;;;7.30;99.90;;;;;;5036210;28;20172;-76
2021/04/09 03:23:14;;;;;;;1.50;1.42;;;7.30;99.90;;;;;;5034861;28;20623;-76
2021/04/09 03:25:40;;;;;;;0.75;0.75;;;7.50;99.90;;;;;;5036094;28;20230;-76
2021/04/09 03:28:06;;;;;;;0.63;0.60;;;7.50;99.90;;;;;;5034751;28;20646;-75
2021/04/09 03:30:32;;;;;;;1.65;1.55;;;7.40;99.90;;;;;;5035886;28;20295;-76
2021/04/09 03:32:58;;;;;;;1.58;1.48;;;7.50;99.90;;;;;;5034701;28;20251;-76
2021/04/09 03:35:24;;;;;;;2.25;1.48;;;7.40;99.90;;;;;;5035782;28;20167;-76
2021/04/09 03:37:49;;;;;;;1.30;1.30;;;7.30;99.90;;;;;;5035833;28;20228;-76
2021/04/09 03:40:16;;;;;;;0.50;0.50;;;7.40;99.90;;;;;;5035804;28;20164;-76
2021/04/09 03:42:42;;;;;;;1.00;1.00;;;7.40;99.90;;;;;;5035732;28;20187;-76
2021/04/09 03:45:08;;;;;;;0.63;0.63;;;7.40;99.90;;;;;;5035665;28;20586;-76
2021/04/09 03:47:34;;;;;;;1.98;1.42;;;7.40;99.90;;;;;;5035300;28;20315;-75
2021/04/09 03:50:00;;;;;;;2.55;2.40;;;7.50;99.90;;;;;;5035551;28;20279;-75
2021/04/09 03:52:26;;;;;;;1.13;1.13;;;7.40;99.90;;;;;;5035771;28;20168;-75
2021/04/09 03:54:51;;;;;;;1.55;0.63;;;7.20;99.90;;;;;;5035554;28;20172;-75
2021/04/09 03:57:17;;;;;;;1.92;1.83;;;7.10;99.90;;;;;;5035452;28;20196;-75
2021/04/09 03:59:43;;;;;;;0.88;0.88;;;7.30;99.90;;;;;;5035375;28;20160;-76
2021/04/09 04:02:08;;;;;;;1.70;1.60;;;7.30;99.90;;;;;;5035424;28;20152;-79
2021/04/09 04:04:34;;;;;;;0.82;0.82;;;7.40;99.90;;;;;;5035307;28;20207;-78
2021/04/09 04:07:00;;;;;;;0.70;0.70;;;7.40;99.90;;;;;;5035162;28;20191;-76
2021/04/09 04:09:25;;;;;;;0.90;0.90;;;7.50;99.90;;;;;;5035204;28;20164;-76
2021/04/09 04:11:51;;;;;;;1.08;1.08;;;7.50;99.90;;;;;;5035083;28;20200;-76
2021/04/09 04:14:17;;;;;;;1.13;1.13;;;7.50;99.90;;;;;;5035259;28;20187;-76
2021/04/09 04:16:43;;;;;;;1.63;1.23;;;7.40;99.90;;;;;;5035463;28;20286;-77
2021/04/09 04:19:09;;;;;;;0.82;0.82;;;7.30;99.90;;;;;;5035074;28;20651;-75
2021/04/09 04:21:34;;;;;;;1.45;1.35;;;7.40;99.90;;;;;;5033563;28;20171;-75
2021/04/09 04:24:00;;;;;;;1.95;1.85;;;7.40;99.90;;;;;;5034766;28;20171;-76
2021/04/09 04:26:26;;;;;;;2.92;1.67;;;7.50;99.90;;;;;;5033599;28;20279;-76
2021/04/09 04:28:51;;;;;;;4.32;2.47;;;7.40;99.90;;;;;;5034988;28;20199;-76
2021/04/09 04:31:17;;;;;;;2.60;1.10;;;7.30;99.90;;;;;;5034744;28;20203;-75
2021/04/09 04:33:43;;;;;;;1.83;1.55;;;7.50;99.90;;;;;;5033482;28;20194;-75
2021/04/09 04:36:09;;;;;;;1.35;1.35;;;7.60;99.90;;;;;;5034541;28;20192;-75
2021/04/09 04:38:34;;;;;;;4.97;2.50;;;7.60;99.90;;;;;;5034735;28;20175;-78
2021/04/09 04:41:00;;;;;;;6.95;4.50;;;7.60;99.90;;;;;;5034563;28;20176;-76
2021/04/09 04:43:26;;;;;;;1.13;1.13;;;7.70;99.90;;;;;;5034466;28;20175;-77
2021/04/09 04:45:52;;;;;;;1.63;1.40;;;7.70;99.90;;;;;;5034442;28;20222;-76
2021/04/09 04:48:18;;;;;;;1.23;0.85;;;7.60;99.90;;;;;;5034473;28;20265;-77
2021/04/09 04:50:43;;;;;;;0.65;0.65;;;7.50;99.90;;;;;;5034333;28;20243;-76
2021/04/09 04:53:09;;;;;;;1.50;1.40;;;7.50;99.90;;;;;;5034484;28;20247;-77
2021/04/09 04:55:35;;;;;;;0.63;0.63;;;7.40;99.90;;;;;;5034332;28;20195;-76
2021/04/09 04:58:01;;;;;;;0.68;0.68;;;7.40;99.90;;;;;;5034264;28;20162;-76
2021/04/09 05:00:27;;;;;;;2.55;1.40;;;7.40;99.90;;;;;;5033019;28;20175;-77
2021/04/09 05:02:53;;;;;;;0.73;0.73;;;7.40;99.90;;;;;;5034018;28;20237;-77
2021/04/09 05:05:19;;;;;;;3.08;2.72;;;7.40;99.90;;;;;;5034226;28;20164;-76
2021/04/09 05:07:44;;;;;;;1.58;1.48;;;7.20;99.90;;;;;;5034095;28;20172;-76
2021/04/09 05:10:11;;;;;;;0.95;0.93;;;7.20;99.90;;;;;;5033868;28;20698;-76
2021/04/09 05:12:37;;;;;;;1.13;1.08;;;7.20;99.90;;;;;;5033896;28;20175;-75
2021/04/09 05:15:03;;;;;;;1.08;0.93;;;7.30;99.90;;;;;;5033967;28;20176;-76
2021/04/09 05:17:29;;;;;;;1.88;1.77;;;7.20;99.90;;;;;;5033575;28;20275;-76
2021/04/09 05:19:55;;;;;;;0.90;0.90;;;7.10;99.90;;;;;;5033622;28;20243;-76
2021/04/09 05:22:20;;;;;;;3.17;2.85;;;7.30;99.90;;;;;;5032678;28;20608;-76
2021/04/09 05:24:47;;;;;;;1.30;0.28;;;7.30;99.90;;;;;;5033712;28;20175;-76
2021/04/09 05:27:13;;;;;;;1.90;1.80;;;7.40;99.90;;;;;;5033497;28;20188;-77
2021/04/09 05:29:39;;;;;;;4.68;1.65;;;7.50;99.90;;;;;;5033490;28;20654;-77
2021/04/09 05:32:09;;;;;;;1.73;1.20;;;7.60;99.90;;;;;;5032770;28;20171;-78
2021/04/09 05:34:35;;;;;;;1.00;1.00;;;7.70;99.90;;;;;;5032369;28;20719;-78
2021/04/09 05:37:01;;;;;;;1.05;1.05;;;7.70;99.90;;;;;;5033392;28;20282;-77
2021/04/09 05:39:27;;;;;;;0.50;0.50;;;7.60;99.90;;;;;;5033406;28;20243;-77
2021/04/09 05:41:52;;;;;;;3.05;1.83;;;7.70;99.90;;;;;;5033533;28;20294;-77
2021/04/09 05:44:18;;;;;;;2.40;1.58;;;7.70;99.90;;;;;;5031905;28;20172;-77
2021/04/09 05:46:43;;;;;;;5.72;2.05;;;7.80;99.90;;;;;;5033153;28;20219;-77
2021/04/09 05:49:09;;;;;;;0.60;0.60;;;7.90;99.90;;;;;;5033232;28;20187;-77
2021/04/09 05:51:38;;;;;;;3.17;2.17;;;7.90;99.90;;;;;;5031797;28;20293;-77
2021/04/09 05:54:03;;;;;;;5.05;2.33;;;7.90;99.90;;;;;;5033138;28;20168;-77
2021/04/09 05:56:29;;;;;;;2.13;2.00;;;8.00;99.90;;;;;;5032937;28;20218;-77
2021/04/09 05:58:55;;;;;;;3.00;2.25;;;8.10;99.90;;;;;;5033228;28;20188;-77
2021/04/09 06:01:23;;;;;;;1.90;1.38;;;8.00;99.90;;;;;;5033085;28;20198;-77
2021/04/09 06:03:49;;;;;;;3.08;1.83;;;7.80;99.90;;;;;;5031837;28;20164;-77
2021/04/09 06:06:16;;;;;;;33.53;2.45;;;7.70;99.90;;;;;;5033152;28;20183;-77
2021/04/09 06:08:42;;;;;;;2.60;2.50;;;7.80;99.90;;;;;;5032888;28;20164;-77
2021/04/09 06:11:09;;;;;;;1.17;1.17;;;8.20;99.90;;;;;;5031553;28;20211;-77
2021/04/09 06:13:34;;;;;;;6.05;3.88;;;8.30;99.90;;;;;;5031641;28;20171;-77
2021/04/09 06:16:00;;;;;;;2.80;2.25;;;8.30;99.90;;;;;;5033216;28;20253;-78
2021/04/09 06:18:26;;;;;;;1.52;1.42;;;8.30;99.90;;;;;;5025265;28;20176;-78
2021/04/09 06:20:51;;;;;;;1.40;1.38;;;8.40;99.90;;;;;;5032906;28;20615;-78
2021/04/09 06:23:17;;;;;;;2.70;2.50;;;8.40;99.90;;;;;;5064863;28;20586;-77
2021/04/09 06:25:43;;;;;;;1.23;1.20;;;8.60;99.90;;;;;;5032821;28;20199;-76
2021/04/09 06:28:09;;;;;;;11.82;3.22;;;8.80;99.90;;;;;;5032823;28;20168;-76
2021/04/09 06:30:34;;;;;;;9.07;2.20;;;9.10;99.90;;;;;;5064755;28;20265;-76
2021/04/09 06:33:00;;;;;;;1.08;1.02;;;8.80;99.90;;;;;;5032748;28;20624;-75
2021/04/09 06:35:25;;;;;;;2.80;2.25;;;8.80;99.90;;;;;;5032492;28;20623;-76
2021/04/09 06:37:51;;;;;;;1.75;1.20;;;8.70;99.90;;;;;;5032809;28;20515;-76
2021/04/09 06:40:18;;;;;;;1.20;1.15;;;8.80;99.90;;;;;;5032742;28;20238;-75
2021/04/09 06:42:44;;;;;;;1.80;1.70;;;8.80;99.90;;;;;;5033295;28;20222;-76
2021/04/09 06:45:10;;;;;;;2.20;2.08;;;8.90;99.90;;;;;;5036797;28;20176;-76
2021/04/09 06:47:36;;;;;;;0.90;0.90;;;8.80;99.90;;;;;;5036537;28;20255;-75
2021/04/09 06:50:03;;;;;;;2.08;1.67;;;8.80;99.90;;;;;;5036607;28;20675;-77
2021/04/09 06:52:29;;;;;;;1.05;1.00;;;8.70;99.90;;;;;;5068928;28;20195;-77
2021/04/09 06:54:55;;;;;;;1.52;1.42;;;8.50;99.90;;;;;;5036654;28;20529;-77
2021/04/09 06:57:23;;;;;;;1.83;1.13;;;8.50;99.90;;;;;;5036233;28;20203;-75
2021/04/09 06:59:51;;;;;;;4.88;2.25;;;8.60;99.90;;;;;;5036444;28;20159;-74
2021/04/09 07:02:17;;;;;;;12.43;1.98;;;8.90;99.90;;;;;;5030495;28;20180;-74
2021/04/09 07:04:46;;;;;;;11.60;0.77;;;8.90;99.90;;;;;;5035429;28;20175;-75
2021/04/09 07:07:14;;;;;;;3.83;1.83;;;8.90;99.90;;;;;;5054505;28;20215;-74
2021/04/09 07:09:41;;;;;;;3.88;1.73;;;9.00;99.90;;;;;;5027875;28;20184;-78
2021/04/09 07:12:19;;;;;;;1.35;1.10;;;8.90;99.90;;;;;;5035411;28;20168;-76
2021/04/09 07:15:17;;;;;;;1.73;1.63;;;9.10;99.90;;;;;;5035546;28;20206;-75
2021/04/09 07:17:49;;;;;;;1.13;1.13;;;9.20;99.90;;;;;;5035591;28;20172;-78
2021/04/09 07:20:20;;;;;;;5.18;2.28;;;9.60;99.90;;;;;;5033827;28;20168;-77
2021/04/09 07:22:57;;;;;;;1.80;1.70;;;9.80;99.90;;;;;;5033813;28;20662;-77
2021/04/09 07:25:25;;;;;;;2.10;1.75;;;9.70;99.90;;;;;;5034944;28;20152;-79
2021/04/09 07:28:12;;;;;;;1.10;1.10;;;9.70;99.90;;;;;;5034422;28;20181;-78
2021/04/09 07:30:39;;;;;;;0.68;0.68;;;9.80;99.90;;;;;;5033937;28;20207;-76
2021/04/09 07:33:06;;;;;;;2.40;1.92;;;9.90;99.90;;;;;;5034656;28;20148;-76
2021/04/09 07:35:55;;;;;;;1.33;1.23;;;10.00;99.90;;;;;;5033871;28;20199;-76
2021/04/09 07:38:28;;;;;;;0.80;0.80;;;10.10;99.90;;;;;;5033774;28;20688;-76
2021/04/09 07:41:01;;;;;;;1.25;1.15;;;10.30;99.90;;;;;;5034865;28;20168;-77
2021/04/09 07:43:36;;;;;;;1.35;1.27;;;10.50;99.90;;;;;;5034647;28;20504;-80
2021/04/09 07:46:04;;;;;;;6.72;3.75;;;10.60;99.90;;;;;;5033180;28;20245;-79
2021/04/09 07:48:38;;;;;;;0.95;0.77;;;10.50;99.90;;;;;;5032207;28;20179;-76
2021/04/09 07:51:06;;;;;;;4.10;1.92;;;10.70;99.90;;;;;;5034255;28;20200;-75
2021/04/09 07:53:31;;;;;;;2.03;1.25;;;10.90;99.90;;;;;;5033124;28;20262;-76
2021/04/09 07:56:12;;;;;;;0.75;0.75;;;11.10;99.90;;;;;;5033458;28;20386;-77
2021/04/09 07:58:39;;;;;;;4.32;1.67;;;11.00;99.90;;;;;;5032428;28;20571;-79
2021/04/09 08:01:16;;;;;;;1.65;1.17;;;11.00;99.90;;;;;;5034418;28;20160;-77
2021/04/09 08:03:45;;;;;;;4.20;1.60;;;11.20;99.90;;;;;;5032602;28;20275;-78
2021/04/09 08:06:24;;;;;;;1.00;1.00;;;11.10;99.90;;;;;;5033947;28;20532;-78
2021/04/09 08:08:50;;;;;;;1.45;1.40;;;11.50;99.90;;;;;;5030937;28;20156;-77
2021/04/09 08:11:32;;;;;;;1.02;1.02;;;11.60;99.90;;;;;;5032549;28;20249;-77
2021/04/09 08:14:23;;;;;;;2.22;1.50;;;11.30;99.90;;;;;;5033425;28;20163;-76
2021/04/09 08:16:50;;;;;;;0.63;0.57;;;11.20;99.90;;;;;;5032007;28;20667;-78
2021/04/09 08:19:19;;;;;;;5.65;2.05;;;11.40;99.90;;;;;;5033040;28;20215;-77
2021/04/09 08:21:51;;;;;;;15.55;2.35;;;11.70;99.90;;;;;;5031627;28;20650;-77
2021/04/09 08:24:18;;;;;;;6.60;1.67;;;11.70;99.90;;;;;;5030248;28;20713;-76
2021/04/09 08:26:44;;;;;;;27.17;2.63;;;11.90;99.90;;;;;;5032942;28;20202;-79
2021/04/09 08:29:12;;;;;;;1.15;1.05;;;11.80;99.90;;;;;;5032778;28;20167;-77
2021/04/09 08:31:39;;;;;;;4.53;2.35;;;11.90;99.90;;;;;;5032924;28;20206;-77
2021/04/09 08:34:06;;;;;;;1.42;1.33;;;12.00;99.90;;;;;;5033317;28;20243;-77
2021/04/09 08:36:34;;;;;;;0.63;0.60;;;12.10;99.90;;;;;;5031949;28;20231;-77
2021/04/09 08:39:03;;;;;;;1.52;1.42;;;11.90;99.90;;;;;;5031990;28;20270;-76
2021/04/09 08:41:29;;;;;;;0.85;0.85;;;11.80;99.90;;;;;;5032966;28;20593;-75
2021/04/09 08:43:55;;;;;;;1.88;1.00;;;11.90;99.90;;;;;;5033383;28;20164;-75
2021/04/09 08:46:21;;;;;;;1.05;1.05;;;11.80;99.90;;;;;;5032999;28;20255;-78
2021/04/09 08:48:48;;;;;;;0.95;0.95;;;11.80;99.90;;;;;;5031370;28;20666;-77
2021/04/09 08:51:20;;;;;;;13.25;1.05;;;12.20;99.90;;;;;;5032465;28;20207;-76
2021/04/09 08:53:45;;;;;;;1.77;1.67;;;12.40;99.90;;;;;;5033211;28;20179;-76
2021/04/09 08:56:11;;;;;;;2.03;1.88;;;12.50;99.90;;;;;;5032899;28;20659;-77
2021/04/09 08:58:45;;;;;;;0.73;0.73;;;12.20;99.90;;;;;;5032313;28;20168;-78
2021/04/09 09:01:12;;;;;;;1.13;1.02;;;12.30;99.90;;;;;;5032915;28;20206;-77
2021/04/09 09:03:38;;;;;;;0.82;0.82;;;12.10;99.90;;;;;;5031477;28;20172;-78
2021/04/09 09:06:09;;;;;;;1.25;1.05;;;12.30;99.90;;;;;;5030514;28;20715;-76
2021/04/09 09:08:50;;;;;;;1.45;1.35;;;12.60;99.90;;;;;;5028078;28;20230;-77
2021/04/09 09:11:58;;;;;;;1.75;1.33;;;12.80;99.90;;;;;;5032717;28;20207;-76
2021/04/09 09:14:32;;;;;;;0.82;0.82;;;12.70;99.90;;;;;;5021870;28;20254;-78
2021/04/09 09:16:58;;;;;;;1.75;1.05;;;12.80;99.90;;;;;;5032229;28;20187;-79
2021/04/09 09:19:39;;;;;;;2.10;1.50;;;12.70;99.90;;;;;;5032489;28;20519;-77
2021/04/09 09:22:12;;;;;;;2.03;1.67;;;12.90;99.90;;;;;;5031232;28;20163;-77
2021/04/09 09:25:01;;;;;;;0.70;0.70;;;12.90;99.90;;;;;;5032753;28;20168;-77
2021/04/09 09:27:52;;;;;;;1.20;1.15;;;13.10;99.90;;;;;;5032794;28;20192;-80
2021/04/09 09:30:29;;;;;;;1.38;1.15;;;13.00;99.90;;;;;;5032316;28;20222;-77
2021/04/09 09:33:24;;;;;;;1.05;0.95;;;12.70;99.90;;;;;;5033147;28;20156;-79
2021/04/09 09:36:00;;;;;;;1.83;1.73;;;12.80;99.90;;;;;;5065051;28;20260;-76
2021/04/09 09:38:57;;;;;;;1.27;1.17;;;12.80;99.90;;;;;;5033044;28;20175;-78
2021/04/09 09:41:34;;;;;;;3.72;1.75;;;12.60;99.90;;;;;;5064921;28;20239;-80
2021/04/09 09:44:00;;;;;;;1.45;0.93;;;12.50;99.90;;;;;;5033124;28;20258;-78
2021/04/09 09:46:50;;;;;;;2.53;1.23;;;12.70;99.90;;;;;;5033096;28;20211;-76
2021/04/09 09:49:16;;;;;;;1.25;1.25;;;12.90;99.90;;;;;;5033235;28;20686;-78
2021/04/09 09:51:42;;;;;;;13.27;1.25;;;12.90;99.90;;;;;;5033157;28;20203;-79
2021/04/09 09:54:08;;;;;;;3.22;1.48;;;12.90;99.90;;;;;;5033076;28;20616;-77
2021/04/09 09:56:33;;;;;;;0.50;0.50;;;13.00;99.90;;;;;;5028517;28;20195;-77
2021/04/09 09:58:59;;;;;;;2.90;0.70;;;13.10;99.90;;;;;;5031110;28;20178;-79
2021/04/09 10:01:26;;;;;;;0.85;0.85;;;12.90;99.90;;;;;;5027419;28;20720;-79
2021/04/09 10:03:53;;;;;;;0.47;0.47;;;12.90;99.90;;;;;;5030146;28;20174;-79
2021/04/09 10:06:26;;;;;;;0.68;0.68;;;12.80;99.90;;;;;;5031426;28;20241;-79
2021/04/09 10:08:52;;;;;;;3.05;0.82;;;12.70;99.90;;;;;;5032504;28;20303;-79
2021/04/09 10:11:20;;;;;;;1.17;1.17;;;12.70;99.90;;;;;;5031898;28;20290;-80
2021/04/09 10:13:50;;;;;;;0.57;0.57;;;12.80;99.90;;;;;;5032349;28;20164;-78
2021/04/09 10:16:21;;;;;;;0.73;0.70;;;12.90;99.90;;;;;;5033040;28;20289;-79
2021/04/09 10:18:53;;;;;;;5.80;2.15;;;13.10;99.90;;;;;;5032270;28;20248;-78
2021/04/09 10:21:23;;;;;;;4.85;1.20;;;13.20;99.90;;;;;;5032374;28;20686;-76
2021/04/09 10:24:03;;;;;;;0.57;0.57;;;13.20;99.90;;;;;;5032657;28;20191;-77
2021/04/09 10:26:29;;;;;;;9.48;2.83;;;13.50;99.90;;;;;;5032513;28;20543;-77
2021/04/09 10:28:55;;;;;;;1.58;1.48;;;13.60;99.90;;;;;;5032359;28;20156;-76
2021/04/09 10:31:22;;;;;;;3.28;1.17;;;13.60;99.90;;;;;;5032340;28;20218;-77
2021/04/09 10:33:50;;;;;;;0.73;0.73;;;13.50;99.90;;;;;;5032545;28;20156;-78
2021/04/09 10:36:21;;;;;;;1.80;1.02;;;13.60;99.90;;;;;;5031102;28;20198;-78
2021/04/09 10:38:49;;;;;;;1.80;1.02;;;13.70;99.90;;;;;;5032599;28;20172;-77
2021/04/09 10:41:31;;;;;;;0.82;0.82;;;13.60;99.90;;;;;;5032553;28;20164;-78
2021/04/09 10:44:12;;;;;;;1.17;0.98;;;13.40;99.90;;;;;;5032366;28;20171;-76
2021/04/09 10:46:40;;;;;;;1.00;1.00;;;13.30;99.90;;;;;;5032558;28;20257;-76
2021/04/09 10:49:26;;;;;;;1.05;1.05;;;13.30;99.90;;;;;;5032382;28;20187;-76
2021/04/09 10:51:55;;;;;;;0.55;0.55;;;13.40;99.90;;;;;;5032445;28;20199;-76
2021/04/09 10:54:24;;;;;;;3.90;1.67;;;13.30;99.90;;;;;;5030719;28;20267;-76
2021/04/09 10:57:00;;;;;;;1.23;1.23;;;13.50;99.90;;;;;;5030604;28;20754;-75
2021/04/09 10:59:33;;;;;;;1.02;1.02;;;13.70;99.90;;;;;;5063974;28;20206;-75
2021/04/09 11:02:00;;;;;;;1.85;1.17;;;13.90;99.90;;;;;;5031981;28;20536;-75
2021/04/09 11:04:28;;;;;;;2.95;1.05;;;14.00;99.90;;;;;;5031440;28;20168;-75
2021/04/09 11:06:58;;;;;;;1.33;0.85;;;14.20;99.90;;;;;;5024682;28;20195;-75
2021/04/09 11:09:41;;;;;;;0.68;0.68;;;14.60;99.90;;;;;;5027210;28;20194;-75
2021/04/09 11:12:20;;;;;;;2.88;1.15;;;14.90;99.90;;;;;;5019185;28;20247;-77
2021/04/09 11:14:47;;;;;;;4.78;1.65;;;15.00;99.90;;;;;;5012062;28;20203;-76
2021/04/09 11:17:24;;;;;;;0.63;0.63;;;15.10;99.90;;;;;;5012448;28;20283;-76
2021/04/09 11:19:57;;;;;;;0.50;0.50;;;15.00;99.90;;;;;;5012302;28;20195;-75
2021/04/09 11:22:28;;;;;;;0.55;0.55;;;15.00;99.90;;;;;;5012429;28;20620;-76
2021/04/09 11:24:57;;;;;;;0.70;0.70;;;15.10;99.90;;;;;;5012103;28;20179;-77
2021/04/09 11:27:25;;;;;;;1.10;0.75;;;15.30;99.90;;;;;;5012446;28;20184;-76
2021/04/09 11:30:05;;;;;;;10.75;1.75;;;15.30;99.90;;;;;;5013609;28;20628;-77
2021/04/09 11:32:38;;;;;;;1.02;0.75;;;15.40;99.90;;;;;;5016029;28;20167;-76
2021/04/09 11:35:12;;;;;;;1.30;1.20;;;15.50;99.90;;;;;;5015949;28;20562;-76
2021/04/09 11:37:47;;;;;;;1.10;1.00;;;15.40;99.90;;;;;;5014572;28;20175;-76
2021/04/09 11:40:18;;;;;;;9.55;1.38;;;15.30;99.90;;;;;;5016068;28;20174;-76
2021/04/09 11:42:45;;;;;;;0.75;0.73;;;15.30;99.90;;;;;;5015879;28;20161;-76
2021/04/09 11:45:14;;;;;;;1.38;0.75;;;15.30;99.90;;;;;;5015648;28;20604;-76
2021/04/09 11:47:43;;;;;;;0.60;0.50;;;15.20;99.90;;;;;;5014210;28;20267;-76
2021/04/09 11:50:18;;;;;;;0.80;0.80;;;15.20;99.90;;;;;;5015523;28;20216;-77
2021/04/09 11:52:54;;;;;;;0.98;0.98;;;15.30;99.90;;;;;;5014306;28;20174;-76
2021/04/09 11:55:32;;;;;;;0.50;0.50;;;15.40;99.90;;;;;;5014186;28;20160;-76
2021/04/09 11:57:58;;;;;;;0.68;0.68;;;15.70;99.90;;;;;;5015738;28;20610;-77
2021/04/09 12:00:26;;;;;;;0.93;0.93;;;16.20;99.90;;;;;;5015522;28;20200;-77
2021/04/09 12:02:56;;;;;;;7.43;1.17;;;16.20;99.90;;;;;;5015281;28;20160;-76
2021/04/09 12:05:23;;;;;;;0.95;0.95;;;16.10;99.90;;;;;;5015305;28;20180;-77
2021/04/09 12:07:49;;;;;;;1.65;0.98;;;16.00;99.90;;;;;;5014058;28;20157;-80
2021/04/09 12:10:19;;;;;;;0.90;0.68;;;16.00;99.90;;;;;;5015225;28;20247;-80
2021/04/09 12:12:45;;;;;;;0.73;0.70;;;16.10;99.90;;;;;;5013788;28;20239;-78
2021/04/09 12:15:11;;;;;;;0.70;0.70;;;15.80;99.90;;;;;;5014916;28;20168;-77
2021/04/09 12:17:37;;;;;;;1.38;1.10;;;15.80;99.90;;;;;;5021326;28;20216;-79
2021/04/09 12:20:14;;;;;;;0.73;0.73;;;16.00;99.90;;;;;;5031385;28;20188;-76
2021/04/09 12:22:40;;;;;;;1.33;1.10;;;15.90;99.90;;;;;;5066702;28;20251;-77
2021/04/09 12:25:07;;;;;;;0.65;0.65;;;15.80;99.70;;;;;;5025651;28;20187;-77
2021/04/09 12:27:33;;;;;;;0.98;0.93;;;15.50;99.90;;;;;;5033679;28;20208;-79
2021/04/09 12:29:59;;;;;;;0.75;0.75;;;15.60;99.90;;;;;;5034575;28;20164;-78
2021/04/09 12:32:25;;;;;;;3.13;1.75;;;15.60;99.50;;;;;;5050571;28;20201;-79
2021/04/09 12:34:51;;;;;;;0.60;0.60;;;15.70;99.70;;;;;;5021145;28;20616;-78
2021/04/09 12:37:16;;;;;;;7.45;1.13;;;15.80;99.40;;;;;;5030954;28;20641;-79
2021/04/09 12:39:42;;;;;;;0.50;0.50;;;15.80;99.90;;;;;;5032974;28;20444;-79
2021/04/09 12:42:09;;;;;;;1.58;1.15;;;16.10;99.30;;;;;;5031414;28;20632;-78
2021/04/09 12:44:35;;;;;;;2.03;1.08;;;16.20;98.80;;;;;;5033190;28;20172;-78
2021/04/09 12:47:01;;;;;;;3.50;1.95;;;16.60;98.40;;;;;;5032993;28;20230;-78
2021/04/09 12:49:27;;;;;;;1.08;0.75;;;16.20;98.70;;;;;;5032792;28;20236;-78
2021/04/09 12:51:53;;;;;;;2.42;1.48;;;16.00;98.30;;;;;;5033001;28;20204;-79
2021/04/09 12:54:19;;;;;;;1.00;1.00;;;16.00;99.10;;;;;;5032909;28;20175;-78
2021/04/09 12:56:45;;;;;;;0.95;0.93;;;16.10;98.60;;;;;;5031240;28;20192;-78
2021/04/09 12:59:10;;;;;;;0.88;0.80;;;16.10;98.70;;;;;;5031715;28;20226;-80
2021/04/09 13:01:36;;;;;;;0.73;0.73;;;16.20;99.70;;;;;;5032154;28;20182;-78
2021/04/09 13:04:01;;;;;;;1.98;1.52;;;16.10;99.00;;;;;;5032429;28;20168;-79
2021/04/09 13:06:27;;;;;;;1.90;1.52;;;16.30;98.40;;;;;;5032606;28;20881;-76